createdAt,value
2019-05-26T11:35:57.519Z,80.00
2019-05-26T11:38:26.482Z,80.20
2019-05-26T11:40:55.239Z,79.40
2019-05-26T11:43:24.049Z,79.70
2019-05-26T11:45:52.789Z,77.70
2019-05-26T11:48:21.920Z,78.90
2019-05-26T11:50:50.727Z,76.20
2019-05-26T11:53:19.577Z,75.30
2019-05-26T11:55:48.325Z,77.30
2019-05-26T11:58:17.059Z,75.60
2019-05-26T12:00:45.882Z,73.80
2019-05-26T12:03:14.623Z,73.30
2019-05-26T12:05:43.405Z,71.60
2019-05-26T12:08:12.234Z,72.90
2019-05-26T12:10:41.005Z,73.00
2019-05-26T12:13:09.741Z,73.20
2019-05-26T12:15:38.546Z,70.00
2019-05-26T12:18:07.675Z,69.60
2019-05-26T12:20:36.771Z,69.60
2019-05-26T12:23:06.334Z,71.20
2019-05-26T12:25:35.086Z,71.10
2019-05-26T12:28:04.015Z,70.20
2019-05-26T12:30:32.754Z,71.60
2019-05-26T12:33:01.494Z,70.70
2019-05-26T12:35:58.578Z,69.80
2019-05-26T12:38:27.445Z,69.80
2019-05-26T12:40:56.290Z,69.20
2019-05-26T12:43:25.017Z,70.40
2019-05-26T12:45:53.837Z,69.50
2019-05-26T12:48:22.645Z,67.60
2019-05-26T12:50:51.451Z,65.80
2019-05-26T12:53:20.350Z,62.30
2019-05-26T12:55:49.141Z,60.00
2019-05-26T12:58:17.931Z,60.00
2019-05-26T13:00:49.795Z,60.80
2019-05-26T13:03:17.160Z,62.40
2019-05-26T13:05:46.001Z,62.10
2019-05-26T13:08:14.813Z,62.10
2019-05-26T13:10:43.645Z,63.70
2019-05-26T13:13:12.801Z,63.70
2019-05-26T13:15:41.638Z,62.20
2019-05-26T13:18:10.379Z,63.90
2019-05-26T13:20:39.135Z,61.30
2019-05-26T13:23:07.921Z,64.20
2019-05-26T13:25:36.682Z,61.30
2019-05-26T13:28:05.700Z,62.40
2019-05-26T13:30:34.945Z,61.30
2019-05-26T13:33:04.666Z,62.70
2019-05-26T13:35:33.698Z,62.90
2019-05-26T13:38:02.673Z,63.10
2019-05-26T13:40:31.494Z,61.90
2019-05-26T13:43:00.234Z,61.90
2019-05-26T13:45:29.005Z,61.60
2019-05-26T13:47:58.063Z,62.80
2019-05-26T13:50:27.317Z,63.50
2019-05-26T13:52:56.055Z,62.80
2019-05-26T13:55:24.909Z,62.60
2019-05-26T13:57:53.747Z,63.30
2019-05-26T14:00:24.616Z,63.60
2019-05-26T14:02:53.447Z,63.20
2019-05-26T14:05:22.263Z,63.20
2019-05-26T14:07:51.254Z,65.00
2019-05-26T14:10:34.218Z,64.70
2019-05-26T14:13:03.158Z,64.00
2019-05-26T14:15:38.158Z,63.60
2019-05-26T14:18:03.351Z,62.80
2019-05-26T14:20:37.710Z,62.40
2019-05-26T14:23:10.252Z,64.40
2019-05-26T14:25:39.230Z,64.30
2019-05-26T14:28:08.532Z,64.30
2019-05-26T14:30:37.847Z,65.20
2019-05-26T14:33:07.098Z,64.30
2019-05-26T14:35:35.857Z,64.80
2019-05-26T14:38:04.732Z,64.50
2019-05-26T14:40:33.631Z,63.50
2019-05-26T14:43:02.508Z,65.90
2019-05-26T14:45:31.250Z,65.00
2019-05-26T14:48:00.145Z,65.10
2019-05-26T14:50:29.054Z,64.50
2019-05-26T14:52:58.306Z,65.10
2019-05-26T14:55:27.069Z,65.90
2019-05-26T14:57:55.805Z,66.60
2019-05-26T15:00:27.266Z,66.30
2019-05-26T15:02:56.159Z,66.90
2019-05-26T15:05:25.203Z,66.00
2019-05-26T15:07:54.038Z,65.90
2019-05-26T15:10:23.016Z,65.70
2019-05-26T15:12:52.062Z,66.70
2019-05-26T15:15:21.060Z,64.70
2019-05-26T15:17:50.218Z,65.70
2019-05-26T15:20:19.907Z,65.20
2019-05-26T15:22:49.046Z,65.30
2019-05-26T15:25:17.910Z,64.50
2019-05-26T15:27:47.114Z,66.20
2019-05-26T15:30:16.402Z,66.00
2019-05-26T15:32:45.142Z,65.30
2019-05-26T15:35:14.490Z,65.30
2019-05-26T15:37:43.272Z,65.10
2019-05-26T15:40:12.311Z,64.50
2019-05-26T15:42:41.056Z,65.60
2019-05-26T15:45:10.274Z,65.70
2019-05-26T15:47:39.095Z,66.90
2019-05-26T15:50:08.938Z,66.60
2019-05-26T15:52:37.755Z,66.00
2019-05-26T15:55:08.131Z,65.70
2019-05-26T15:57:37.011Z,66.40
2019-05-26T16:00:06.376Z,65.00
2019-05-26T16:02:35.247Z,66.00
2019-05-26T16:05:04.284Z,64.50
2019-05-26T16:07:33.042Z,65.40
2019-05-26T16:10:02.149Z,65.10
2019-05-26T16:12:30.962Z,64.50
2019-05-26T16:15:00.006Z,66.00
2019-05-26T16:17:28.848Z,63.70
2019-05-26T16:19:57.851Z,64.80
2019-05-26T16:22:27.142Z,64.00
2019-05-26T16:24:55.941Z,65.20
2019-05-26T16:27:24.689Z,64.80
2019-05-26T16:29:53.436Z,63.30
2019-05-26T16:32:22.212Z,64.60
2019-05-26T16:34:51.018Z,64.60
2019-05-26T16:37:19.778Z,65.10
2019-05-26T16:39:48.515Z,62.90
2019-05-26T16:42:17.285Z,63.70
2019-05-26T16:44:46.170Z,65.60
2019-05-26T16:47:14.930Z,64.00
2019-05-26T16:49:43.670Z,64.80
2019-05-26T16:52:12.506Z,63.60
2019-05-26T16:54:41.589Z,64.50
2019-05-26T16:57:10.498Z,63.80
2019-05-26T16:59:39.231Z,60.30
2019-05-26T17:02:08.473Z,60.70
2019-05-26T17:04:37.287Z,60.00
2019-05-26T17:07:06.112Z,59.30
2019-05-26T17:09:34.934Z,58.20
2019-05-26T17:12:04.135Z,57.00
2019-05-26T17:14:32.905Z,57.20
2019-05-26T17:17:14.169Z,57.70
2019-05-26T17:19:32.542Z,56.10
2019-05-26T17:22:01.385Z,56.30
2019-05-26T17:24:30.385Z,54.80
2019-05-26T17:26:59.174Z,55.50
2019-05-26T17:29:27.897Z,56.40
2019-05-26T17:31:56.822Z,56.60
2019-05-26T17:34:25.557Z,57.50
2019-05-26T17:36:54.702Z,58.70
2019-05-26T17:39:23.546Z,59.50
2019-05-26T17:41:52.326Z,60.30
2019-05-26T17:44:21.086Z,60.50
2019-05-26T17:46:50.154Z,62.30
2019-05-26T17:49:18.906Z,62.20
2019-05-26T17:51:48.002Z,62.80
2019-05-26T17:54:17.394Z,63.40
2019-05-26T17:56:46.130Z,64.00
2019-05-26T17:59:14.874Z,64.40
2019-05-26T18:01:43.624Z,65.10
2019-05-26T18:04:12.506Z,65.30
2019-05-26T18:06:41.758Z,65.70
2019-05-26T18:09:10.538Z,65.70
2019-05-26T18:11:39.442Z,65.50
2019-05-26T18:14:08.259Z,66.60
2019-05-26T18:16:37.331Z,66.90
2019-05-26T18:19:06.062Z,68.00
2019-05-26T18:21:34.806Z,67.70
2019-05-26T18:24:03.954Z,68.70
2019-05-26T18:26:32.722Z,68.50
2019-05-26T18:29:01.508Z,68.60
2019-05-26T18:31:30.582Z,69.40
2019-05-26T18:33:59.439Z,68.90
2019-05-26T18:36:28.186Z,70.20
2019-05-26T18:38:56.946Z,71.00
2019-05-26T18:41:25.831Z,72.20
2019-05-26T18:43:54.579Z,72.20
2019-05-26T18:46:23.445Z,72.50
2019-05-26T18:48:52.286Z,72.70
2019-05-26T18:51:21.249Z,73.30
2019-05-26T18:53:50.112Z,73.20
2019-05-26T18:56:19.057Z,73.80
2019-05-26T18:58:48.139Z,74.60
2019-05-26T19:01:16.944Z,75.40
2019-05-26T19:03:45.687Z,75.20
2019-05-26T19:06:14.534Z,75.90
2019-05-26T19:08:43.390Z,76.40
2019-05-26T19:11:12.272Z,77.00
2019-05-26T19:13:41.113Z,78.30
2019-05-26T19:16:09.943Z,78.90
2019-05-26T19:18:38.868Z,80.40
2019-05-26T19:21:07.945Z,81.50
2019-05-26T19:23:36.718Z,82.50
2019-05-26T19:26:05.932Z,82.80
2019-05-26T19:28:34.747Z,83.50
2019-05-26T19:31:03.489Z,84.00
2019-05-26T19:33:32.262Z,86.40
2019-05-26T19:36:01.128Z,86.70
2019-05-26T19:38:29.968Z,88.00
2019-05-26T19:40:58.797Z,89.50
2019-05-26T19:43:27.582Z,90.20
2019-05-26T19:45:56.437Z,90.50
2019-05-26T19:48:35.600Z,90.90
2019-05-26T19:50:55.711Z,91.50
2019-05-26T19:53:24.482Z,92.30
2019-05-26T19:55:53.635Z,92.80
2019-05-26T19:58:22.453Z,92.90
2019-05-26T20:00:51.275Z,93.10
2019-05-26T20:03:20.265Z,93.20
2019-05-26T20:05:49.221Z,93.00
2019-05-26T20:08:17.957Z,93.20
2019-05-26T20:10:46.815Z,93.70
2019-05-26T20:13:15.574Z,94.00
2019-05-26T20:15:44.309Z,94.30
2019-05-26T20:18:14.054Z,94.20
2019-05-26T20:20:42.871Z,95.00
2019-05-26T20:23:11.725Z,94.90
2019-05-26T20:25:40.586Z,94.90
2019-05-26T20:28:09.330Z,95.00
2019-05-26T20:30:38.060Z,94.90
2019-05-26T20:33:07.111Z,95.10
2019-05-26T20:35:35.885Z,95.30
2019-05-26T20:38:04.711Z,95.80
2019-05-26T20:40:33.462Z,95.90
2019-05-26T20:43:02.230Z,96.10
2019-05-26T20:45:30.949Z,96.20
2019-05-26T20:47:59.665Z,96.30
2019-05-26T20:50:29.745Z,96.10
2019-05-26T20:52:59.123Z,96.20
2019-05-26T20:55:27.987Z,96.10
2019-05-26T20:57:56.706Z,96.10
